sensor_id;sensor_type;location;lat;lon;timestamp;P1;durP1;ratioP1;P2;durP2;ratioP2
11267;SDS011;49397;47.474;9.416;2022-07-24T00:00:07;14.77;;;12.00;;
11267;SDS011;49397;47.474;9.416;2022-07-24T00:02:33;16.00;;;11.37;;
11267;SDS011;49397;47.474;9.416;2022-07-24T00:04:59;17.73;;;12.40;;
11267;SDS011;49397;47.474;9.416;2022-07-24T00:07:27;13.73;;;12.30;;
11267;SDS011;49397;47.474;9.416;2022-07-24T00:09:53;13.83;;;12.40;;
11267;SDS011;49397;47.474;9.416;2022-07-24T00:12:20;13.00;;;11.23;;
11267;SDS011;49397;47.474;9.416;2022-07-24T00:14:45;16.23;;;12.60;;
11267;SDS011;49397;47.474;9.416;2022-07-24T00:17:11;16.70;;;13.77;;
11267;SDS011;49397;47.474;9.416;2022-07-24T00:19:37;13.37;;;11.77;;
11267;SDS011;49397;47.474;9.416;2022-07-24T00:22:02;14.03;;;12.53;;
11267;SDS011;49397;47.474;9.416;2022-07-24T00:24:28;16.50;;;12.50;;
11267;SDS011;49397;47.474;9.416;2022-07-24T00:26:54;13.57;;;12.17;;
11267;SDS011;49397;47.474;9.416;2022-07-24T00:29:19;12.57;;;11.07;;
11267;SDS011;49397;47.474;9.416;2022-07-24T00:31:45;13.53;;;12.00;;
11267;SDS011;49397;47.474;9.416;2022-07-24T00:34:11;14.03;;;12.67;;
11267;SDS011;49397;47.474;9.416;2022-07-24T00:36:36;15.93;;;12.77;;
11267;SDS011;49397;47.474;9.416;2022-07-24T00:39:02;13.33;;;11.43;;
11267;SDS011;49397;47.474;9.416;2022-07-24T00:41:28;12.67;;;11.47;;
11267;SDS011;49397;47.474;9.416;2022-07-24T00:44:00;13.27;;;11.80;;
11267;SDS011;49397;47.474;9.416;2022-07-24T00:46:29;16.67;;;12.20;;
11267;SDS011;49397;47.474;9.416;2022-07-24T00:48:54;13.10;;;11.70;;
11267;SDS011;49397;47.474;9.416;2022-07-24T00:51:20;16.80;;;11.53;;
11267;SDS011;49397;47.474;9.416;2022-07-24T00:53:46;13.63;;;12.23;;
11267;SDS011;49397;47.474;9.416;2022-07-24T00:56:12;13.53;;;12.17;;
11267;SDS011;49397;47.474;9.416;2022-07-24T00:58:38;14.23;;;12.50;;
11267;SDS011;49397;47.474;9.416;2022-07-24T01:01:04;14.73;;;13.10;;
11267;SDS011;49397;47.474;9.416;2022-07-24T01:03:29;17.20;;;12.70;;
11267;SDS011;49397;47.474;9.416;2022-07-24T01:05:55;15.73;;;12.77;;
11267;SDS011;49397;47.474;9.416;2022-07-24T01:08:21;17.13;;;13.03;;
11267;SDS011;49397;47.474;9.416;2022-07-24T01:10:47;13.23;;;11.90;;
11267;SDS011;49397;47.474;9.416;2022-07-24T01:13:13;14.50;;;12.03;;
11267;SDS011;49397;47.474;9.416;2022-07-24T01:15:39;13.30;;;11.90;;
11267;SDS011;49397;47.474;9.416;2022-07-24T01:18:04;14.93;;;12.43;;
11267;SDS011;49397;47.474;9.416;2022-07-24T01:20:30;14.23;;;12.27;;
11267;SDS011;49397;47.474;9.416;2022-07-24T01:22:55;13.70;;;11.47;;
11267;SDS011;49397;47.474;9.416;2022-07-24T01:25:21;13.97;;;12.53;;
11267;SDS011;49397;47.474;9.416;2022-07-24T01:27:46;13.27;;;11.87;;
11267;SDS011;49397;47.474;9.416;2022-07-24T01:30:12;15.30;;;13.17;;
11267;SDS011;49397;47.474;9.416;2022-07-24T01:32:38;17.17;;;12.07;;
11267;SDS011;49397;47.474;9.416;2022-07-24T01:35:04;13.33;;;11.90;;
11267;SDS011;49397;47.474;9.416;2022-07-24T01:37:30;14.03;;;12.17;;
11267;SDS011;49397;47.474;9.416;2022-07-24T01:39:56;12.73;;;11.40;;
11267;SDS011;49397;47.474;9.416;2022-07-24T01:42:21;13.07;;;11.70;;
11267;SDS011;49397;47.474;9.416;2022-07-24T01:44:49;13.27;;;11.60;;
11267;SDS011;49397;47.474;9.416;2022-07-24T01:47:14;14.63;;;11.33;;
11267;SDS011;49397;47.474;9.416;2022-07-24T01:49:40;13.13;;;11.00;;
11267;SDS011;49397;47.474;9.416;2022-07-24T01:52:06;14.07;;;12.13;;
11267;SDS011;49397;47.474;9.416;2022-07-24T01:54:31;14.73;;;11.67;;
11267;SDS011;49397;47.474;9.416;2022-07-24T01:56:57;13.10;;;11.80;;
11267;SDS011;49397;47.474;9.416;2022-07-24T01:59:22;15.63;;;11.87;;
11267;SDS011;49397;47.474;9.416;2022-07-24T02:01:48;16.37;;;12.33;;
11267;SDS011;49397;47.474;9.416;2022-07-24T02:04:13;13.13;;;11.83;;
11267;SDS011;49397;47.474;9.416;2022-07-24T02:06:39;12.57;;;11.27;;
11267;SDS011;49397;47.474;9.416;2022-07-24T02:09:04;15.60;;;11.43;;
11267;SDS011;49397;47.474;9.416;2022-07-24T02:11:30;13.00;;;11.60;;
11267;SDS011;49397;47.474;9.416;2022-07-24T02:13:55;14.20;;;11.60;;
11267;SDS011;49397;47.474;9.416;2022-07-24T02:16:22;14.47;;;11.83;;
11267;SDS011;49397;47.474;9.416;2022-07-24T02:18:47;13.87;;;12.17;;
11267;SDS011;49397;47.474;9.416;2022-07-24T02:21:13;13.10;;;11.43;;
11267;SDS011;49397;47.474;9.416;2022-07-24T02:23:39;17.00;;;10.90;;
11267;SDS011;49397;47.474;9.416;2022-07-24T02:26:04;11.93;;;10.73;;
11267;SDS011;49397;47.474;9.416;2022-07-24T02:28:30;16.67;;;11.70;;
11267;SDS011;49397;47.474;9.416;2022-07-24T02:30:56;12.63;;;11.10;;
11267;SDS011;49397;47.474;9.416;2022-07-24T02:33:21;12.17;;;10.83;;
11267;SDS011;49397;47.474;9.416;2022-07-24T02:35:47;13.37;;;11.27;;
11267;SDS011;49397;47.474;9.416;2022-07-24T02:38:12;12.07;;;10.90;;
11267;SDS011;49397;47.474;9.416;2022-07-24T02:40:38;12.37;;;11.07;;
11267;SDS011;49397;47.474;9.416;2022-07-24T02:43:03;12.23;;;10.60;;
11267;SDS011;49397;47.474;9.416;2022-07-24T02:45:29;13.63;;;10.77;;
11267;SDS011;49397;47.474;9.416;2022-07-24T02:47:56;12.57;;;10.27;;
11267;SDS011;49397;47.474;9.416;2022-07-24T02:50:23;13.60;;;10.93;;
11267;SDS011;49397;47.474;9.416;2022-07-24T02:52:49;13.67;;;11.50;;
11267;SDS011;49397;47.474;9.416;2022-07-24T02:55:15;14.93;;;11.37;;
11267;SDS011;49397;47.474;9.416;2022-07-24T02:57:41;15.60;;;11.30;;
11267;SDS011;49397;47.474;9.416;2022-07-24T03:00:12;13.53;;;12.13;;
11267;SDS011;49397;47.474;9.416;2022-07-24T03:02:40;17.43;;;11.37;;
11267;SDS011;49397;47.474;9.416;2022-07-24T03:05:06;11.43;;;10.23;;
11267;SDS011;49397;47.474;9.416;2022-07-24T03:07:32;12.73;;;11.27;;
11267;SDS011;49397;47.474;9.416;2022-07-24T03:10:02;13.50;;;11.57;;
11267;SDS011;49397;47.474;9.416;2022-07-24T03:12:28;15.80;;;11.97;;
11267;SDS011;49397;47.474;9.416;2022-07-24T03:14:54;13.73;;;10.60;;
11267;SDS011;49397;47.474;9.416;2022-07-24T03:17:19;15.97;;;11.70;;
11267;SDS011;49397;47.474;9.416;2022-07-24T03:19:45;12.57;;;10.87;;
11267;SDS011;49397;47.474;9.416;2022-07-24T03:22:10;12.87;;;11.43;;
11267;SDS011;49397;47.474;9.416;2022-07-24T03:24:36;14.60;;;10.47;;
11267;SDS011;49397;47.474;9.416;2022-07-24T03:27:01;15.27;;;11.27;;
11267;SDS011;49397;47.474;9.416;2022-07-24T03:29:27;14.23;;;11.93;;
11267;SDS011;49397;47.474;9.416;2022-07-24T03:31:52;13.80;;;11.73;;
11267;SDS011;49397;47.474;9.416;2022-07-24T03:34:18;13.70;;;10.60;;
11267;SDS011;49397;47.474;9.416;2022-07-24T03:36:43;14.23;;;11.87;;
11267;SDS011;49397;47.474;9.416;2022-07-24T03:39:09;13.00;;;11.70;;
11267;SDS011;49397;47.474;9.416;2022-07-24T03:41:34;12.40;;;11.10;;
11267;SDS011;49397;47.474;9.416;2022-07-24T03:44:00;12.60;;;11.30;;
11267;SDS011;49397;47.474;9.416;2022-07-24T03:46:25;14.33;;;11.67;;
11267;SDS011;49397;47.474;9.416;2022-07-24T03:48:53;16.17;;;11.37;;
11267;SDS011;49397;47.474;9.416;2022-07-24T03:51:19;13.73;;;11.73;;
11267;SDS011;49397;47.474;9.416;2022-07-24T03:53:44;12.97;;;10.93;;
11267;SDS011;49397;47.474;9.416;2022-07-24T03:56:10;12.83;;;10.87;;
11267;SDS011;49397;47.474;9.416;2022-07-24T03:58:36;14.80;;;11.83;;
11267;SDS011;49397;47.474;9.416;2022-07-24T04:01:02;13.03;;;11.53;;
11267;SDS011;49397;47.474;9.416;2022-07-24T04:03:28;14.83;;;12.17;;
11267;SDS011;49397;47.474;9.416;2022-07-24T04:05:53;12.43;;;10.93;;
11267;SDS011;49397;47.474;9.416;2022-07-24T04:08:19;13.53;;;11.43;;
11267;SDS011;49397;47.474;9.416;2022-07-24T04:10:44;13.67;;;11.67;;
11267;SDS011;49397;47.474;9.416;2022-07-24T04:13:10;12.67;;;11.37;;
11267;SDS011;49397;47.474;9.416;2022-07-24T04:15:35;12.73;;;11.20;;
11267;SDS011;49397;47.474;9.416;2022-07-24T04:18:01;12.33;;;10.80;;
11267;SDS011;49397;47.474;9.416;2022-07-24T04:20:27;15.77;;;11.47;;
11267;SDS011;49397;47.474;9.416;2022-07-24T04:22:52;15.03;;;11.30;;
11267;SDS011;49397;47.474;9.416;2022-07-24T04:25:18;14.00;;;12.10;;
11267;SDS011;49397;47.474;9.416;2022-07-24T04:27:43;17.17;;;11.83;;
11267;SDS011;49397;47.474;9.416;2022-07-24T04:30:10;13.03;;;11.57;;
11267;SDS011;49397;47.474;9.416;2022-07-24T04:32:36;12.50;;;11.20;;
11267;SDS011;49397;47.474;9.416;2022-07-24T04:35:03;12.00;;;10.80;;
11267;SDS011;49397;47.474;9.416;2022-07-24T04:37:29;12.57;;;11.10;;
11267;SDS011;49397;47.474;9.416;2022-07-24T04:39:54;13.17;;;11.20;;
11267;SDS011;49397;47.474;9.416;2022-07-24T04:42:20;12.63;;;11.33;;
11267;SDS011;49397;47.474;9.416;2022-07-24T04:44:45;15.27;;;12.27;;
11267;SDS011;49397;47.474;9.416;2022-07-24T04:47:11;14.03;;;12.53;;
11267;SDS011;49397;47.474;9.416;2022-07-24T04:49:36;13.87;;;11.97;;
11267;SDS011;49397;47.474;9.416;2022-07-24T04:52:02;12.50;;;11.20;;
11267;SDS011;49397;47.474;9.416;2022-07-24T04:54:27;14.20;;;11.67;;
11267;SDS011;49397;47.474;9.416;2022-07-24T04:56:53;15.73;;;12.23;;
11267;SDS011;49397;47.474;9.416;2022-07-24T04:59:18;14.63;;;11.30;;
11267;SDS011;49397;47.474;9.416;2022-07-24T05:01:44;12.27;;;10.97;;
11267;SDS011;49397;47.474;9.416;2022-07-24T05:04:09;13.07;;;11.70;;
11267;SDS011;49397;47.474;9.416;2022-07-24T05:06:35;13.83;;;12.03;;
11267;SDS011;49397;47.474;9.416;2022-07-24T05:09:00;16.33;;;11.37;;
11267;SDS011;49397;47.474;9.416;2022-07-24T05:11:26;13.07;;;11.67;;
11267;SDS011;49397;47.474;9.416;2022-07-24T05:13:51;13.43;;;12.03;;
11267;SDS011;49397;47.474;9.416;2022-07-24T05:16:17;13.93;;;11.73;;
11267;SDS011;49397;47.474;9.416;2022-07-24T05:18:42;13.60;;;12.07;;
11267;SDS011;49397;47.474;9.416;2022-07-24T05:21:08;13.53;;;11.50;;
11267;SDS011;49397;47.474;9.416;2022-07-24T05:23:33;14.80;;;12.17;;
11267;SDS011;49397;47.474;9.416;2022-07-24T05:25:59;14.33;;;12.03;;
11267;SDS011;49397;47.474;9.416;2022-07-24T05:28:24;13.73;;;11.40;;
11267;SDS011;49397;47.474;9.416;2022-07-24T05:30:50;12.33;;;10.50;;
11267;SDS011;49397;47.474;9.416;2022-07-24T05:33:15;12.97;;;11.67;;
11267;SDS011;49397;47.474;9.416;2022-07-24T05:35:41;14.13;;;11.90;;
11267;SDS011;49397;47.474;9.416;2022-07-24T05:38:06;13.33;;;11.50;;
11267;SDS011;49397;47.474;9.416;2022-07-24T05:40:32;11.73;;;10.53;;
11267;SDS011;49397;47.474;9.416;2022-07-24T05:42:57;12.80;;;11.27;;
11267;SDS011;49397;47.474;9.416;2022-07-24T05:45:23;12.03;;;10.70;;
11267;SDS011;49397;47.474;9.416;2022-07-24T05:47:48;14.07;;;11.13;;
11267;SDS011;49397;47.474;9.416;2022-07-24T05:50:14;12.30;;;11.10;;
11267;SDS011;49397;47.474;9.416;2022-07-24T05:52:39;12.63;;;11.00;;
11267;SDS011;49397;47.474;9.416;2022-07-24T05:55:05;12.93;;;10.83;;
11267;SDS011;49397;47.474;9.416;2022-07-24T05:57:32;12.07;;;10.63;;
11267;SDS011;49397;47.474;9.416;2022-07-24T05:59:58;12.63;;;10.93;;
11267;SDS011;49397;47.474;9.416;2022-07-24T06:02:24;12.83;;;10.07;;
11267;SDS011;49397;47.474;9.416;2022-07-24T06:04:49;13.40;;;10.87;;
11267;SDS011;49397;47.474;9.416;2022-07-24T06:07:15;11.73;;;9.90;;
11267;SDS011;49397;47.474;9.416;2022-07-24T06:09:40;13.80;;;11.60;;
11267;SDS011;49397;47.474;9.416;2022-07-24T06:12:06;13.70;;;11.50;;
11267;SDS011;49397;47.474;9.416;2022-07-24T06:14:32;13.13;;;11.73;;
11267;SDS011;49397;47.474;9.416;2022-07-24T06:16:58;12.00;;;10.80;;
11267;SDS011;49397;47.474;9.416;2022-07-24T06:19:24;12.63;;;11.07;;
11267;SDS011;49397;47.474;9.416;2022-07-24T06:21:50;12.43;;;11.13;;
11267;SDS011;49397;47.474;9.416;2022-07-24T06:24:16;14.47;;;11.60;;
11267;SDS011;49397;47.474;9.416;2022-07-24T06:26:41;12.77;;;11.03;;
11267;SDS011;49397;47.474;9.416;2022-07-24T06:29:07;12.83;;;11.53;;
11267;SDS011;49397;47.474;9.416;2022-07-24T06:31:32;16.00;;;12.70;;
11267;SDS011;49397;47.474;9.416;2022-07-24T06:33:58;13.37;;;11.53;;
11267;SDS011;49397;47.474;9.416;2022-07-24T06:36:23;13.57;;;12.07;;
11267;SDS011;49397;47.474;9.416;2022-07-24T06:38:49;13.93;;;12.17;;
11267;SDS011;49397;47.474;9.416;2022-07-24T06:41:14;14.37;;;12.87;;
11267;SDS011;49397;47.474;9.416;2022-07-24T06:43:40;15.07;;;11.70;;
11267;SDS011;49397;47.474;9.416;2022-07-24T06:46:06;14.20;;;12.67;;
11267;SDS011;49397;47.474;9.416;2022-07-24T06:48:31;12.47;;;10.90;;
11267;SDS011;49397;47.474;9.416;2022-07-24T06:50:57;13.53;;;12.03;;
11267;SDS011;49397;47.474;9.416;2022-07-24T06:53:22;14.77;;;12.07;;
11267;SDS011;49397;47.474;9.416;2022-07-24T06:55:48;13.20;;;11.77;;
11267;SDS011;49397;47.474;9.416;2022-07-24T06:58:15;15.93;;;11.80;;
11267;SDS011;49397;47.474;9.416;2022-07-24T07:00:40;14.33;;;11.97;;
11267;SDS011;49397;47.474;9.416;2022-07-24T07:03:05;12.93;;;11.63;;
11267;SDS011;49397;47.474;9.416;2022-07-24T07:05:31;12.43;;;11.13;;
11267;SDS011;49397;47.474;9.416;2022-07-24T07:07:57;14.00;;;11.20;;
11267;SDS011;49397;47.474;9.416;2022-07-24T07:10:22;14.33;;;12.20;;
11267;SDS011;49397;47.474;9.416;2022-07-24T07:12:48;13.97;;;12.47;;
11267;SDS011;49397;47.474;9.416;2022-07-24T07:15:14;13.00;;;11.43;;
11267;SDS011;49397;47.474;9.416;2022-07-24T07:17:40;13.47;;;11.87;;
11267;SDS011;49397;47.474;9.416;2022-07-24T07:20:07;15.73;;;12.30;;
11267;SDS011;49397;47.474;9.416;2022-07-24T07:22:34;13.87;;;12.40;;
11267;SDS011;49397;47.474;9.416;2022-07-24T07:25:00;13.23;;;11.77;;
11267;SDS011;49397;47.474;9.416;2022-07-24T07:27:26;13.33;;;11.47;;
11267;SDS011;49397;47.474;9.416;2022-07-24T07:29:51;15.90;;;13.40;;
11267;SDS011;49397;47.474;9.416;2022-07-24T07:32:17;14.77;;;13.07;;
11267;SDS011;49397;47.474;9.416;2022-07-24T07:34:42;12.93;;;11.50;;
11267;SDS011;49397;47.474;9.416;2022-07-24T07:37:08;14.70;;;13.10;;
11267;SDS011;49397;47.474;9.416;2022-07-24T07:39:33;14.87;;;13.27;;
11267;SDS011;49397;47.474;9.416;2022-07-24T07:41:59;13.90;;;12.50;;
11267;SDS011;49397;47.474;9.416;2022-07-24T07:44:24;15.13;;;12.77;;
11267;SDS011;49397;47.474;9.416;2022-07-24T07:46:50;14.27;;;12.43;;
11267;SDS011;49397;47.474;9.416;2022-07-24T07:49:15;16.13;;;12.83;;
11267;SDS011;49397;47.474;9.416;2022-07-24T07:51:41;14.03;;;12.67;;
11267;SDS011;49397;47.474;9.416;2022-07-24T07:54:07;14.80;;;13.33;;
11267;SDS011;49397;47.474;9.416;2022-07-24T07:56:32;15.70;;;13.07;;
11267;SDS011;49397;47.474;9.416;2022-07-24T07:58:58;14.57;;;12.97;;
11267;SDS011;49397;47.474;9.416;2022-07-24T08:01:24;14.97;;;13.20;;
11267;SDS011;49397;47.474;9.416;2022-07-24T08:03:49;15.23;;;13.63;;
11267;SDS011;49397;47.474;9.416;2022-07-24T08:06:15;16.90;;;14.37;;
11267;SDS011;49397;47.474;9.416;2022-07-24T08:08:40;17.60;;;14.67;;
11267;SDS011;49397;47.474;9.416;2022-07-24T08:11:06;15.33;;;13.27;;
11267;SDS011;49397;47.474;9.416;2022-07-24T08:13:31;16.07;;;14.13;;
11267;SDS011;49397;47.474;9.416;2022-07-24T08:15:57;15.73;;;13.97;;
11267;SDS011;49397;47.474;9.416;2022-07-24T08:18:22;17.03;;;15.20;;
11267;SDS011;49397;47.474;9.416;2022-07-24T08:20:48;17.63;;;14.30;;
11267;SDS011;49397;47.474;9.416;2022-07-24T08:23:13;15.93;;;14.13;;
11267;SDS011;49397;47.474;9.416;2022-07-24T08:25:39;15.03;;;13.43;;
11267;SDS011;49397;47.474;9.416;2022-07-24T08:28:05;20.83;;;14.90;;
11267;SDS011;49397;47.474;9.416;2022-07-24T08:30:30;18.50;;;15.20;;
11267;SDS011;49397;47.474;9.416;2022-07-24T08:32:56;19.57;;;14.43;;
11267;SDS011;49397;47.474;9.416;2022-07-24T08:35:21;17.13;;;14.40;;
11267;SDS011;49397;47.474;9.416;2022-07-24T08:37:48;17.20;;;14.03;;
11267;SDS011;49397;47.474;9.416;2022-07-24T08:40:14;16.30;;;14.43;;
11267;SDS011;49397;47.474;9.416;2022-07-24T08:42:40;20.27;;;15.37;;
11267;SDS011;49397;47.474;9.416;2022-07-24T08:45:06;20.13;;;15.53;;
11267;SDS011;49397;47.474;9.416;2022-07-24T08:47:32;14.33;;;12.70;;
11267;SDS011;49397;47.474;9.416;2022-07-24T08:49:58;14.90;;;13.40;;
11267;SDS011;49397;47.474;9.416;2022-07-24T08:52:25;19.27;;;16.23;;
11267;SDS011;49397;47.474;9.416;2022-07-24T08:54:51;16.27;;;14.57;;
11267;SDS011;49397;47.474;9.416;2022-07-24T08:57:17;17.97;;;15.37;;
11267;SDS011;49397;47.474;9.416;2022-07-24T08:59:43;19.37;;;15.83;;
11267;SDS011;49397;47.474;9.416;2022-07-24T09:02:09;16.63;;;14.13;;
11267;SDS011;49397;47.474;9.416;2022-07-24T09:07:05;15.53;;;13.90;;
11267;SDS011;49397;47.474;9.416;2022-07-24T09:09:32;15.87;;;13.93;;
11267;SDS011;49397;47.474;9.416;2022-07-24T09:12:05;16.77;;;15.00;;
11267;SDS011;49397;47.474;9.416;2022-07-24T09:14:41;16.33;;;14.37;;
11267;SDS011;49397;47.474;9.416;2022-07-24T09:17:13;16.83;;;14.37;;
11267;SDS011;49397;47.474;9.416;2022-07-24T09:27:28;17.50;;;15.60;;
11267;SDS011;49397;47.474;9.416;2022-07-24T09:29:53;18.53;;;14.80;;
11267;SDS011;49397;47.474;9.416;2022-07-24T09:32:21;18.63;;;16.10;;
11267;SDS011;49397;47.474;9.416;2022-07-24T09:34:50;16.50;;;14.63;;
11267;SDS011;49397;47.474;9.416;2022-07-24T09:37:16;16.97;;;13.73;;
11267;SDS011;49397;47.474;9.416;2022-07-24T09:39:42;16.43;;;14.03;;
11267;SDS011;49397;47.474;9.416;2022-07-24T09:42:08;18.13;;;15.23;;
11267;SDS011;49397;47.474;9.416;2022-07-24T09:44:34;17.13;;;15.33;;
11267;SDS011;49397;47.474;9.416;2022-07-24T09:47:02;17.53;;;14.60;;
11267;SDS011;49397;47.474;9.416;2022-07-24T09:49:29;19.73;;;16.10;;
11267;SDS011;49397;47.474;9.416;2022-07-24T09:54:34;17.07;;;15.27;;
11267;SDS011;49397;47.474;9.416;2022-07-24T09:59:59;17.90;;;16.00;;
11267;SDS011;49397;47.474;9.416;2022-07-24T10:02:32;20.10;;;18.03;;
11267;SDS011;49397;47.474;9.416;2022-07-24T10:05:00;19.50;;;15.73;;
11267;SDS011;49397;47.474;9.416;2022-07-24T10:07:28;18.70;;;15.83;;
11267;SDS011;49397;47.474;9.416;2022-07-24T10:09:55;15.73;;;13.73;;
11267;SDS011;49397;47.474;9.416;2022-07-24T10:12:26;16.90;;;14.00;;
11267;SDS011;49397;47.474;9.416;2022-07-24T10:14:55;16.27;;;14.57;;
11267;SDS011;49397;47.474;9.416;2022-07-24T10:17:24;14.43;;;12.93;;
11267;SDS011;49397;47.474;9.416;2022-07-24T10:19:55;17.37;;;14.27;;
11267;SDS011;49397;47.474;9.416;2022-07-24T10:22:27;17.63;;;13.73;;
11267;SDS011;49397;47.474;9.416;2022-07-24T10:25:07;15.93;;;14.23;;
11267;SDS011;49397;47.474;9.416;2022-07-24T10:27:35;16.37;;;13.43;;
11267;SDS011;49397;47.474;9.416;2022-07-24T10:30:04;13.70;;;12.30;;
11267;SDS011;49397;47.474;9.416;2022-07-24T10:32:31;12.60;;;11.30;;
11267;SDS011;49397;47.474;9.416;2022-07-24T10:35:06;14.10;;;12.37;;
11267;SDS011;49397;47.474;9.416;2022-07-24T10:40:48;13.83;;;12.43;;
11267;SDS011;49397;47.474;9.416;2022-07-24T10:43:18;12.33;;;11.17;;
11267;SDS011;49397;47.474;9.416;2022-07-24T10:45:46;12.77;;;11.23;;
11267;SDS011;49397;47.474;9.416;2022-07-24T10:48:37;13.53;;;11.23;;
11267;SDS011;49397;47.474;9.416;2022-07-24T10:51:09;12.70;;;11.40;;
11267;SDS011;49397;47.474;9.416;2022-07-24T10:56:18;12.63;;;10.70;;
11267;SDS011;49397;47.474;9.416;2022-07-24T11:01:39;12.40;;;11.20;;
11267;SDS011;49397;47.474;9.416;2022-07-24T11:06:51;13.50;;;12.20;;
11267;SDS011;49397;47.474;9.416;2022-07-24T11:09:26;11.70;;;10.50;;
11267;SDS011;49397;47.474;9.416;2022-07-24T11:14:22;11.43;;;10.32;;
11267;SDS011;49397;47.474;9.416;2022-07-24T11:20:12;13.85;;;11.25;;
11267;SDS011;49397;47.474;9.416;2022-07-24T11:22:47;13.20;;;10.97;;
11267;SDS011;49397;47.474;9.416;2022-07-24T11:25:15;13.40;;;10.90;;
11267;SDS011;49397;47.474;9.416;2022-07-24T11:27:47;11.90;;;10.43;;
11267;SDS011;49397;47.474;9.416;2022-07-24T11:30:14;11.30;;;10.15;;
11267;SDS011;49397;47.474;9.416;2022-07-24T11:32:41;11.27;;;10.18;;
11267;SDS011;49397;47.474;9.416;2022-07-24T11:35:07;11.63;;;10.52;;
11267;SDS011;49397;47.474;9.416;2022-07-24T11:37:34;11.68;;;10.57;;
11267;SDS011;49397;47.474;9.416;2022-07-24T11:40:01;10.63;;;9.63;;
11267;SDS011;49397;47.474;9.416;2022-07-24T11:42:28;10.50;;;9.50;;
11267;SDS011;49397;47.474;9.416;2022-07-24T11:44:54;10.85;;;9.75;;
11267;SDS011;49397;47.474;9.416;2022-07-24T11:47:21;11.35;;;10.27;;
11267;SDS011;49397;47.474;9.416;2022-07-24T11:49:52;11.93;;;10.68;;
11267;SDS011;49397;47.474;9.416;2022-07-24T11:52:19;10.15;;;9.15;;
11267;SDS011;49397;47.474;9.416;2022-07-24T11:54:48;10.85;;;9.85;;
11267;SDS011;49397;47.474;9.416;2022-07-24T11:57:19;11.00;;;9.85;;
11267;SDS011;49397;47.474;9.416;2022-07-24T11:59:46;11.20;;;10.10;;
11267;SDS011;49397;47.474;9.416;2022-07-24T12:02:12;10.35;;;9.35;;
11267;SDS011;49397;47.474;9.416;2022-07-24T12:04:38;13.52;;;9.70;;
11267;SDS011;49397;47.474;9.416;2022-07-24T12:07:09;10.38;;;9.35;;
11267;SDS011;49397;47.474;9.416;2022-07-24T12:10:00;11.00;;;9.57;;
11267;SDS011;49397;47.474;9.416;2022-07-24T12:12:29;9.25;;;8.35;;
11267;SDS011;49397;47.474;9.416;2022-07-24T12:15:02;10.43;;;9.43;;
11267;SDS011;49397;47.474;9.416;2022-07-24T12:17:31;11.80;;;9.68;;
11267;SDS011;49397;47.474;9.416;2022-07-24T12:19:59;10.45;;;9.45;;
11267;SDS011;49397;47.474;9.416;2022-07-24T12:22:26;9.68;;;8.68;;
11267;SDS011;49397;47.474;9.416;2022-07-24T12:24:53;10.85;;;9.35;;
11267;SDS011;49397;47.474;9.416;2022-07-24T12:27:34;9.80;;;8.82;;
11267;SDS011;49397;47.474;9.416;2022-07-24T12:30:16;10.75;;;9.65;;
11267;SDS011;49397;47.474;9.416;2022-07-24T12:32:58;9.95;;;8.95;;
11267;SDS011;49397;47.474;9.416;2022-07-24T12:35:26;9.88;;;8.93;;
11267;SDS011;49397;47.474;9.416;2022-07-24T12:37:53;10.95;;;8.40;;
11267;SDS011;49397;47.474;9.416;2022-07-24T12:40:27;9.68;;;8.77;;
11267;SDS011;49397;47.474;9.416;2022-07-24T12:43:12;10.38;;;9.25;;
11267;SDS011;49397;47.474;9.416;2022-07-24T12:45:38;8.70;;;7.90;;
11267;SDS011;49397;47.474;9.416;2022-07-24T12:48:08;9.95;;;8.88;;
11267;SDS011;49397;47.474;9.416;2022-07-24T12:50:37;11.38;;;9.25;;
11267;SDS011;49397;47.474;9.416;2022-07-24T12:53:07;9.15;;;8.35;;
11267;SDS011;49397;47.474;9.416;2022-07-24T12:55:34;11.35;;;9.00;;
11267;SDS011;49397;47.474;9.416;2022-07-24T12:58:01;8.82;;;7.93;;
11267;SDS011;49397;47.474;9.416;2022-07-24T13:00:28;8.73;;;7.88;;
11267;SDS011;49397;47.474;9.416;2022-07-24T13:02:54;8.80;;;7.70;;
11267;SDS011;49397;47.474;9.416;2022-07-24T13:05:36;9.30;;;7.70;;
11267;SDS011;49397;47.474;9.416;2022-07-24T13:08:05;9.40;;;7.95;;
11267;SDS011;49397;47.474;9.416;2022-07-24T13:10:32;8.00;;;7.30;;
11267;SDS011;49397;47.474;9.416;2022-07-24T13:12:59;12.95;;;7.70;;
11267;SDS011;49397;47.474;9.416;2022-07-24T13:15:24;8.10;;;7.25;;
11267;SDS011;49397;47.474;9.416;2022-07-24T13:17:50;8.07;;;7.38;;
11267;SDS011;49397;47.474;9.416;2022-07-24T13:20:15;8.38;;;7.63;;
11267;SDS011;49397;47.474;9.416;2022-07-24T13:22:41;7.68;;;6.88;;
11267;SDS011;49397;47.474;9.416;2022-07-24T13:25:06;7.47;;;6.78;;
11267;SDS011;49397;47.474;9.416;2022-07-24T13:27:32;8.77;;;7.97;;
11267;SDS011;49397;47.474;9.416;2022-07-24T13:29:57;8.07;;;7.15;;
11267;SDS011;49397;47.474;9.416;2022-07-24T13:32:23;7.80;;;7.10;;
11267;SDS011;49397;47.474;9.416;2022-07-24T13:34:49;8.38;;;7.50;;
11267;SDS011;49397;47.474;9.416;2022-07-24T13:37:14;8.65;;;7.85;;
11267;SDS011;49397;47.474;9.416;2022-07-24T13:39:40;9.10;;;8.20;;
11267;SDS011;49397;47.474;9.416;2022-07-24T13:42:08;10.75;;;8.90;;
11267;SDS011;49397;47.474;9.416;2022-07-24T13:44:34;8.82;;;8.02;;
11267;SDS011;49397;47.474;9.416;2022-07-24T13:47:00;9.85;;;8.52;;
11267;SDS011;49397;47.474;9.416;2022-07-24T13:49:25;9.32;;;8.43;;
11267;SDS011;49397;47.474;9.416;2022-07-24T13:51:51;10.80;;;8.68;;
11267;SDS011;49397;47.474;9.416;2022-07-24T13:54:16;9.32;;;8.38;;
11267;SDS011;49397;47.474;9.416;2022-07-24T13:56:42;9.60;;;8.60;;
11267;SDS011;49397;47.474;9.416;2022-07-24T13:59:09;8.73;;;7.97;;
11267;SDS011;49397;47.474;9.416;2022-07-24T14:01:35;12.20;;;9.50;;
11267;SDS011;49397;47.474;9.416;2022-07-24T14:04:04;9.85;;;8.95;;
11267;SDS011;49397;47.474;9.416;2022-07-24T14:06:34;9.32;;;8.52;;
11267;SDS011;49397;47.474;9.416;2022-07-24T14:09:01;9.02;;;8.15;;
11267;SDS011;49397;47.474;9.416;2022-07-24T14:11:28;9.15;;;8.40;;
11267;SDS011;49397;47.474;9.416;2022-07-24T14:13:53;9.30;;;8.52;;
11267;SDS011;49397;47.474;9.416;2022-07-24T14:16:19;9.00;;;8.13;;
11267;SDS011;49397;47.474;9.416;2022-07-24T14:18:46;10.55;;;9.45;;
11267;SDS011;49397;47.474;9.416;2022-07-24T14:21:11;9.52;;;8.52;;
11267;SDS011;49397;47.474;9.416;2022-07-24T14:23:37;9.93;;;9.02;;
11267;SDS011;49397;47.474;9.416;2022-07-24T14:26:03;9.63;;;8.73;;
11267;SDS011;49397;47.474;9.416;2022-07-24T14:28:28;9.90;;;8.98;;
11267;SDS011;49397;47.474;9.416;2022-07-24T14:30:54;11.23;;;9.30;;
11267;SDS011;49397;47.474;9.416;2022-07-24T14:33:19;11.13;;;9.15;;
11267;SDS011;49397;47.474;9.416;2022-07-24T14:35:45;9.82;;;8.93;;
11267;SDS011;49397;47.474;9.416;2022-07-24T14:38:10;9.23;;;8.35;;
11267;SDS011;49397;47.474;9.416;2022-07-24T14:40:36;8.55;;;7.82;;
11267;SDS011;49397;47.474;9.416;2022-07-24T14:43:01;9.80;;;8.90;;
11267;SDS011;49397;47.474;9.416;2022-07-24T14:45:27;8.80;;;7.88;;
11267;SDS011;49397;47.474;9.416;2022-07-24T14:47:52;9.55;;;8.55;;
11267;SDS011;49397;47.474;9.416;2022-07-24T14:50:18;9.02;;;8.23;;
11267;SDS011;49397;47.474;9.416;2022-07-24T14:52:44;9.10;;;8.32;;
11267;SDS011;49397;47.474;9.416;2022-07-24T14:55:11;8.85;;;8.05;;